sensor_id;sensor_type;location;lat;lon;timestamp;pressure;altitude;pressure_sealevel;temperature;humidity
42125;BME280;27787;44.594;11.046;2023-03-25T00:00:17;100701.28;;;15.15;59.01
42125;BME280;27787;44.594;11.046;2023-03-25T00:03:01;100705.69;;;15.16;58.74
42125;BME280;27787;44.594;11.046;2023-03-25T00:05:47;100702.16;;;15.15;58.41
42125;BME280;27787;44.594;11.046;2023-03-25T00:08:31;100714.59;;;15.10;59.00
42125;BME280;27787;44.594;11.046;2023-03-25T00:11:15;100716.50;;;15.02;59.62
42125;BME280;27787;44.594;11.046;2023-03-25T00:14:00;100709.44;;;14.96;59.56
42125;BME280;27787;44.594;11.046;2023-03-25T00:16:44;100697.16;;;14.88;60.16
42125;BME280;27787;44.594;11.046;2023-03-25T00:19:32;100700.78;;;14.81;61.49
42125;BME280;27787;44.594;11.046;2023-03-25T00:22:17;100703.47;;;14.79;61.40
42125;BME280;27787;44.594;11.046;2023-03-25T00:25:02;100688.47;;;14.73;62.42
42125;BME280;27787;44.594;11.046;2023-03-25T00:27:47;100684.09;;;14.68;62.85
42125;BME280;27787;44.594;11.046;2023-03-25T00:30:31;100677.03;;;14.65;63.19
42125;BME280;27787;44.594;11.046;2023-03-25T00:33:15;100685.09;;;14.59;63.62
42125;BME280;27787;44.594;11.046;2023-03-25T00:36:01;100678.06;;;14.52;63.96
42125;BME280;27787;44.594;11.046;2023-03-25T00:38:48;100691.41;;;14.44;64.18
42125;BME280;27787;44.594;11.046;2023-03-25T00:41:32;100686.19;;;14.32;64.74
42125;BME280;27787;44.594;11.046;2023-03-25T00:44:18;100688.97;;;14.20;65.03
42125;BME280;27787;44.594;11.046;2023-03-25T00:47:03;100686.38;;;14.12;65.28
42125;BME280;27787;44.594;11.046;2023-03-25T00:49:48;100689.06;;;14.05;65.42
42125;BME280;27787;44.594;11.046;2023-03-25T00:52:32;100672.28;;;14.03;65.50
42125;BME280;27787;44.594;11.046;2023-03-25T00:55:16;100671.38;;;14.05;64.90
42125;BME280;27787;44.594;11.046;2023-03-25T00:58:01;100663.41;;;14.05;64.86
42125;BME280;27787;44.594;11.046;2023-03-25T01:00:46;100658.06;;;14.10;65.02
42125;BME280;27787;44.594;11.046;2023-03-25T01:03:31;100653.63;;;14.13;64.67
42125;BME280;27787;44.594;11.046;2023-03-25T01:06:15;100645.63;;;14.16;63.98
42125;BME280;27787;44.594;11.046;2023-03-25T01:09:02;100648.25;;;14.16;63.94
42125;BME280;27787;44.594;11.046;2023-03-25T01:11:48;100659.81;;;14.14;64.41
42125;BME280;27787;44.594;11.046;2023-03-25T01:14:32;100653.69;;;14.03;65.26
42125;BME280;27787;44.594;11.046;2023-03-25T01:17:17;100654.66;;;13.96;65.83
42125;BME280;27787;44.594;11.046;2023-03-25T01:20:01;100652.91;;;13.90;65.78
42125;BME280;27787;44.594;11.046;2023-03-25T01:22:49;100641.41;;;13.91;65.22
42125;BME280;27787;44.594;11.046;2023-03-25T01:25:33;100636.13;;;13.90;65.61
42125;BME280;27787;44.594;11.046;2023-03-25T01:28:17;100629.03;;;13.92;65.60
42125;BME280;27787;44.594;11.046;2023-03-25T01:31:05;100620.19;;;13.94;64.88
42125;BME280;27787;44.594;11.046;2023-03-25T01:33:49;100617.53;;;13.94;65.22
42125;BME280;27787;44.594;11.046;2023-03-25T01:36:34;100619.34;;;13.87;65.48
42125;BME280;27787;44.594;11.046;2023-03-25T01:39:22;100614.09;;;13.78;66.16
42125;BME280;27787;44.594;11.046;2023-03-25T01:42:09;100610.63;;;13.72;66.10
42125;BME280;27787;44.594;11.046;2023-03-25T01:45:20;100608.03;;;13.67;66.63
42125;BME280;27787;44.594;11.046;2023-03-25T01:48:08;100605.38;;;13.64;66.74
42125;BME280;27787;44.594;11.046;2023-03-25T01:50:58;100599.22;;;13.59;66.72
42125;BME280;27787;44.594;11.046;2023-03-25T01:53:44;100593.94;;;13.59;66.84
42125;BME280;27787;44.594;11.046;2023-03-25T01:56:40;100586.88;;;13.58;66.78
42125;BME280;27787;44.594;11.046;2023-03-25T01:59:27;100578.94;;;13.56;67.21
42125;BME280;27787;44.594;11.046;2023-03-25T02:02:12;100586.88;;;13.53;67.12
42125;BME280;27787;44.594;11.046;2023-03-25T02:05:11;100590.44;;;13.51;67.42
42125;BME280;27787;44.594;11.046;2023-03-25T02:08:03;100583.44;;;13.44;67.96
42125;BME280;27787;44.594;11.046;2023-03-25T02:10:48;100578.13;;;13.41;68.24
42125;BME280;27787;44.594;11.046;2023-03-25T02:13:34;100582.56;;;13.40;68.32
42125;BME280;27787;44.594;11.046;2023-03-25T02:38:48;100552.59;;;13.27;69.06
42125;BME280;27787;44.594;11.046;2023-03-25T02:41:42;100547.34;;;13.21;69.62
42125;BME280;27787;44.594;11.046;2023-03-25T02:47:37;100558.94;;;13.04;69.20
42125;BME280;27787;44.594;11.046;2023-03-25T02:50:33;100545.75;;;12.93;69.80
42125;BME280;27787;44.594;11.046;2023-03-25T02:53:30;100548.47;;;12.79;70.88
42125;BME280;27787;44.594;11.046;2023-03-25T02:56:18;100557.28;;;12.75;71.44
42125;BME280;27787;44.594;11.046;2023-03-25T02:59:06;100546.78;;;12.64;71.99
42125;BME280;27787;44.594;11.046;2023-03-25T03:01:55;100560.03;;;12.58;72.59
42125;BME280;27787;44.594;11.046;2023-03-25T03:04:52;100562.72;;;12.51;72.80
42125;BME280;27787;44.594;11.046;2023-03-25T03:07:37;100559.19;;;12.50;73.48
42125;BME280;27787;44.594;11.046;2023-03-25T03:10:33;100546.84;;;12.51;73.21
42125;BME280;27787;44.594;11.046;2023-03-25T03:16:36;100534.44;;;12.57;73.51
42125;BME280;27787;44.594;11.046;2023-03-25T03:19:38;100546.78;;;12.61;72.57
42125;BME280;27787;44.594;11.046;2023-03-25T03:22:48;100542.41;;;12.56;72.99
42125;BME280;27787;44.594;11.046;2023-03-25T03:31:41;100552.94;;;12.66;72.15
42125;BME280;27787;44.594;11.046;2023-03-25T03:34:30;100552.94;;;12.69;71.61
42125;BME280;27787;44.594;11.046;2023-03-25T03:37:38;100575.91;;;12.61;71.77
42125;BME280;27787;44.594;11.046;2023-03-25T03:40:27;100588.31;;;12.50;72.97
42125;BME280;27787;44.594;11.046;2023-03-25T03:43:16;100598.91;;;12.44;74.10
42125;BME280;27787;44.594;11.046;2023-03-25T03:46:05;100605.16;;;12.26;75.16
42125;BME280;27787;44.594;11.046;2023-03-25T03:48:55;100604.31;;;12.01;76.14
42125;BME280;27787;44.594;11.046;2023-03-25T03:51:44;100606.97;;;11.89;76.58
42125;BME280;27787;44.594;11.046;2023-03-25T03:54:36;100610.47;;;11.80;77.35
42125;BME280;27787;44.594;11.046;2023-03-25T03:57:32;100614.88;;;11.74;77.73
42125;BME280;27787;44.594;11.046;2023-03-25T04:00:26;100612.25;;;11.80;77.40
42125;BME280;27787;44.594;11.046;2023-03-25T04:03:19;100604.31;;;11.81;77.80
42125;BME280;27787;44.594;11.046;2023-03-25T04:06:12;100610.47;;;11.93;77.28
42125;BME280;27787;44.594;11.046;2023-03-25T04:09:02;100616.63;;;12.05;77.10
42125;BME280;27787;44.594;11.046;2023-03-25T04:11:55;100611.34;;;12.18;76.15
42125;BME280;27787;44.594;11.046;2023-03-25T04:14:43;100609.56;;;12.27;75.31
42125;BME280;27787;44.594;11.046;2023-03-25T04:17:27;100606.88;;;12.43;74.23
42125;BME280;27787;44.594;11.046;2023-03-25T04:20:20;100606.78;;;12.61;73.00
42125;BME280;27787;44.594;11.046;2023-03-25T04:23:09;100607.63;;;12.72;73.30
42125;BME280;27787;44.594;11.046;2023-03-25T04:25:59;100609.44;;;12.67;73.10
42125;BME280;27787;44.594;11.046;2023-03-25T04:28:45;100622.72;;;12.49;74.42
42125;BME280;27787;44.594;11.046;2023-03-25T04:31:30;100628.06;;;12.35;74.99
42125;BME280;27787;44.594;11.046;2023-03-25T04:34:14;100625.41;;;12.23;75.40
42125;BME280;27787;44.594;11.046;2023-03-25T04:36:58;100628.97;;;12.08;75.98
42125;BME280;27787;44.594;11.046;2023-03-25T04:39:42;100628.09;;;11.97;77.00
42125;BME280;27787;44.594;11.046;2023-03-25T04:42:26;100632.53;;;11.89;76.99
42125;BME280;27787;44.594;11.046;2023-03-25T04:45:15;100636.91;;;11.82;77.30
42125;BME280;27787;44.594;11.046;2023-03-25T04:48:00;100635.16;;;11.79;77.21
42125;BME280;27787;44.594;11.046;2023-03-25T04:50:44;100635.13;;;11.76;77.00
42125;BME280;27787;44.594;11.046;2023-03-25T04:53:29;100634.25;;;11.73;77.05
42125;BME280;27787;44.594;11.046;2023-03-25T04:56:15;100640.41;;;11.70;76.83
42125;BME280;27787;44.594;11.046;2023-03-25T04:59:00;100644.81;;;11.65;77.11
42125;BME280;27787;44.594;11.046;2023-03-25T05:01:44;100641.28;;;11.65;76.61
42125;BME280;27787;44.594;11.046;2023-03-25T05:04:28;100646.59;;;11.65;76.42
42125;BME280;27787;44.594;11.046;2023-03-25T05:07:12;100644.81;;;11.70;76.33
42125;BME280;27787;44.594;11.046;2023-03-25T05:09:56;100643.09;;;11.79;75.49
42125;BME280;27787;44.594;11.046;2023-03-25T05:12:41;100641.34;;;11.94;75.15
42125;BME280;27787;44.594;11.046;2023-03-25T05:15:25;100646.63;;;12.03;74.56
42125;BME280;27787;44.594;11.046;2023-03-25T05:18:12;100657.22;;;12.04;74.72
42125;BME280;27787;44.594;11.046;2023-03-25T05:20:57;100658.09;;;12.08;74.79
42125;BME280;27787;44.594;11.046;2023-03-25T05:23:43;100667.78;;;12.15;73.76
42125;BME280;27787;44.594;11.046;2023-03-25T05:26:27;100671.31;;;12.20;73.80
42125;BME280;27787;44.594;11.046;2023-03-25T05:29:17;100672.19;;;12.22;72.98
42125;BME280;27787;44.594;11.046;2023-03-25T05:32:02;100674.84;;;12.25;73.02
42125;BME280;27787;44.594;11.046;2023-03-25T05:34:47;100666.00;;;12.38;72.70
42125;BME280;27787;44.594;11.046;2023-03-25T05:37:31;100672.13;;;12.48;72.14
42125;BME280;27787;44.594;11.046;2023-03-25T05:40:15;100665.97;;;12.55;71.48
42125;BME280;27787;44.594;11.046;2023-03-25T05:42:59;100661.56;;;12.54;70.97
42125;BME280;27787;44.594;11.046;2023-03-25T05:45:43;100673.91;;;12.49;71.73
42125;BME280;27787;44.594;11.046;2023-03-25T05:48:29;100671.31;;;12.37;72.08
42125;BME280;27787;44.594;11.046;2023-03-25T05:51:16;100668.66;;;12.26;72.48
42125;BME280;27787;44.594;11.046;2023-03-25T05:54:01;100673.94;;;12.23;72.81
42125;BME280;27787;44.594;11.046;2023-03-25T05:56:46;100676.63;;;12.11;73.61
42125;BME280;27787;44.594;11.046;2023-03-25T05:59:30;100676.63;;;12.00;74.43
42125;BME280;27787;44.594;11.046;2023-03-25T06:02:16;100681.03;;;12.00;74.51
42125;BME280;27787;44.594;11.046;2023-03-25T06:05:00;100681.00;;;12.06;74.58
42125;BME280;27787;44.594;11.046;2023-03-25T06:07:45;100680.16;;;12.12;74.33
42125;BME280;27787;44.594;11.046;2023-03-25T06:10:30;100673.97;;;12.17;74.04
42125;BME280;27787;44.594;11.046;2023-03-25T06:13:16;100663.34;;;12.22;73.84
42125;BME280;27787;44.594;11.046;2023-03-25T06:15:59;100647.50;;;12.26;73.87
42125;BME280;27787;44.594;11.046;2023-03-25T06:18:47;100657.16;;;12.36;73.80
42125;BME280;27787;44.594;11.046;2023-03-25T06:21:38;100651.84;;;12.46;73.88
42125;BME280;27787;44.594;11.046;2023-03-25T06:24:23;100642.13;;;12.55;74.17
42125;BME280;27787;44.594;11.046;2023-03-25T06:27:12;100651.81;;;12.65;74.15
42125;BME280;27787;44.594;11.046;2023-03-25T06:29:57;100661.50;;;12.74;74.09
42125;BME280;27787;44.594;11.046;2023-03-25T06:32:40;100668.56;;;12.77;74.79
42125;BME280;27787;44.594;11.046;2023-03-25T06:35:25;100663.22;;;12.83;74.92
42125;BME280;27787;44.594;11.046;2023-03-25T06:38:11;100669.41;;;12.89;75.07
42125;BME280;27787;44.594;11.046;2023-03-25T06:41:17;100666.69;;;12.98;74.97
42125;BME280;27787;44.594;11.046;2023-03-25T06:44:05;100670.22;;;13.05;74.92
42125;BME280;27787;44.594;11.046;2023-03-25T06:47:08;100669.31;;;13.15;75.28
42125;BME280;27787;44.594;11.046;2023-03-25T06:49:59;100663.97;;;13.23;75.68
42125;BME280;27787;44.594;11.046;2023-03-25T06:52:44;100665.69;;;13.35;75.70
42125;BME280;27787;44.594;11.046;2023-03-25T06:55:28;100665.63;;;13.47;76.10
42125;BME280;27787;44.594;11.046;2023-03-25T06:58:12;100671.75;;;13.55;76.47
42125;BME280;27787;44.594;11.046;2023-03-25T07:00:57;100674.38;;;13.61;77.13
42125;BME280;27787;44.594;11.046;2023-03-25T07:03:46;100674.31;;;13.70;77.49
42125;BME280;27787;44.594;11.046;2023-03-25T07:06:30;100668.03;;;13.79;77.39
42125;BME280;27787;44.594;11.046;2023-03-25T07:09:15;100675.91;;;13.91;77.80
42125;BME280;27787;44.594;11.046;2023-03-25T07:11:59;100676.75;;;13.98;78.08
42125;BME280;27787;44.594;11.046;2023-03-25T07:14:43;100675.78;;;14.05;78.25
42125;BME280;27787;44.594;11.046;2023-03-25T07:17:29;100672.25;;;14.09;77.81
42125;BME280;27787;44.594;11.046;2023-03-25T07:20:14;100674.84;;;14.13;77.71
42125;BME280;27787;44.594;11.046;2023-03-25T07:22:58;100673.91;;;14.21;77.53
42125;BME280;27787;44.594;11.046;2023-03-25T07:25:43;100670.25;;;14.31;77.01
42125;BME280;27787;44.594;11.046;2023-03-25T07:28:27;100664.88;;;14.40;76.64
42125;BME280;27787;44.594;11.046;2023-03-25T07:31:13;100669.25;;;14.49;75.86
42125;BME280;27787;44.594;11.046;2023-03-25T07:33:58;100676.25;;;14.56;75.26
42125;BME280;27787;44.594;11.046;2023-03-25T07:36:43;100669.97;;;14.63;75.44
42125;BME280;27787;44.594;11.046;2023-03-25T07:39:27;100674.34;;;14.71;74.90
42125;BME280;27787;44.594;11.046;2023-03-25T07:42:11;100670.69;;;14.79;74.33
42125;BME280;27787;44.594;11.046;2023-03-25T07:45:14;100674.19;;;14.85;74.64
42125;BME280;27787;44.594;11.046;2023-03-25T07:48:01;100674.13;;;14.88;74.92
42125;BME280;27787;44.594;11.046;2023-03-25T07:50:45;100675.84;;;14.92;75.42
42125;BME280;27787;44.594;11.046;2023-03-25T07:53:32;100673.13;;;14.95;75.17
42125;BME280;27787;44.594;11.046;2023-03-25T07:56:16;100677.56;;;14.98;75.76
42125;BME280;27787;44.594;11.046;2023-03-25T07:59:01;100682.78;;;15.04;75.85
42125;BME280;27787;44.594;11.046;2023-03-25T08:01:45;100673.00;;;15.06;75.47
42125;BME280;27787;44.594;11.046;2023-03-25T08:04:30;100670.31;;;15.09;75.81
42125;BME280;27787;44.594;11.046;2023-03-25T08:07:14;100674.72;;;15.13;75.38
42125;BME280;27787;44.594;11.046;2023-03-25T08:09:58;100679.13;;;15.14;75.58
42125;BME280;27787;44.594;11.046;2023-03-25T08:12:43;100684.44;;;15.16;75.50
42125;BME280;27787;44.594;11.046;2023-03-25T08:15:27;100687.03;;;15.19;76.06
42125;BME280;27787;44.594;11.046;2023-03-25T08:18:12;100693.19;;;15.22;76.24
42125;BME280;27787;44.594;11.046;2023-03-25T08:20:56;100694.06;;;15.23;76.68
42125;BME280;27787;44.594;11.046;2023-03-25T08:23:40;100697.63;;;15.25;76.84
42125;BME280;27787;44.594;11.046;2023-03-25T08:26:25;100700.06;;;15.40;76.37
42125;BME280;27787;44.594;11.046;2023-03-25T08:29:10;100695.50;;;15.48;76.43
42125;BME280;27787;44.594;11.046;2023-03-25T08:31:55;100690.94;;;15.58;75.58
42125;BME280;27787;44.594;11.046;2023-03-25T08:34:39;100697.28;;;15.48;76.70
42125;BME280;27787;44.594;11.046;2023-03-25T08:37:24;100689.19;;;15.57;75.09
42125;BME280;27787;44.594;11.046;2023-03-25T08:40:09;100684.81;;;15.53;75.60
42125;BME280;27787;44.594;11.046;2023-03-25T08:42:53;100690.16;;;15.51;75.88
42125;BME280;27787;44.594;11.046;2023-03-25T08:45:38;100697.25;;;15.49;76.38
42125;BME280;27787;44.594;11.046;2023-03-25T08:48:23;100695.44;;;15.54;75.34
42125;BME280;27787;44.594;11.046;2023-03-25T08:51:08;100698.88;;;15.64;75.67
42125;BME280;27787;44.594;11.046;2023-03-25T08:53:52;100700.56;;;15.70;75.23
42125;BME280;27787;44.594;11.046;2023-03-25T08:56:36;100701.31;;;15.79;75.19
42125;BME280;27787;44.594;11.046;2023-03-25T08:59:20;100699.59;;;15.74;75.89
42125;BME280;27787;44.594;11.046;2023-03-25T09:02:05;100693.41;;;15.73;75.18
42125;BME280;27787;44.594;11.046;2023-03-25T09:04:49;100689.84;;;15.74;75.56
42125;BME280;27787;44.594;11.046;2023-03-25T09:07:34;100693.38;;;15.76;74.89
42125;BME280;27787;44.594;11.046;2023-03-25T09:10:19;100687.19;;;15.76;74.75
42125;BME280;27787;44.594;11.046;2023-03-25T09:13:03;100684.41;;;15.82;74.92
42125;BME280;27787;44.594;11.046;2023-03-25T09:15:48;100690.50;;;15.88;74.36
42125;BME280;27787;44.594;11.046;2023-03-25T09:18:32;100695.75;;;15.95;73.67
42125;BME280;27787;44.594;11.046;2023-03-25T09:21:16;100688.47;;;16.06;73.53
42125;BME280;27787;44.594;11.046;2023-03-25T09:24:00;100689.25;;;16.11;73.55
42125;BME280;27787;44.594;11.046;2023-03-25T09:26:44;100685.63;;;16.16;73.60
42125;BME280;27787;44.594;11.046;2023-03-25T09:29:28;100678.44;;;16.21;73.61
42125;BME280;27787;44.594;11.046;2023-03-25T09:32:12;100680.97;;;16.29;72.87
42125;BME280;27787;44.594;11.046;2023-03-25T09:34:58;100682.66;;;16.35;72.46
42125;BME280;27787;44.594;11.046;2023-03-25T09:37:42;100679.69;;;16.50;71.40
42125;BME280;27787;44.594;11.046;2023-03-25T09:40:27;100683.03;;;16.63;69.73
42125;BME280;27787;44.594;11.046;2023-03-25T09:46:14;100670.28;;;16.82;65.94
42125;BME280;27787;44.594;11.046;2023-03-25T09:48:59;100667.47;;;16.88;67.02
42125;BME280;27787;44.594;11.046;2023-03-25T09:51:45;100671.72;;;16.98;67.86
42125;BME280;27787;44.594;11.046;2023-03-25T09:54:32;100675.16;;;17.03;66.59
42125;BME280;27787;44.594;11.046;2023-03-25T09:57:27;100667.94;;;17.08;62.38
42125;BME280;27787;44.594;11.046;2023-03-25T10:00:19;100667.88;;;17.11;62.92
42125;BME280;27787;44.594;11.046;2023-03-25T10:06:12;100667.00;;;17.51;56.85
42125;BME280;27787;44.594;11.046;2023-03-25T10:09:20;100665.69;;;17.70;51.93
42125;BME280;27787;44.594;11.046;2023-03-25T10:24:25;100668.81;;;18.24;45.09
42125;BME280;27787;44.594;11.046;2023-03-25T10:27:26;100673.03;;;18.33;42.19
42125;BME280;27787;44.594;11.046;2023-03-25T10:30:16;100653.91;;;18.48;42.32
42125;BME280;27787;44.594;11.046;2023-03-25T10:33:04;100662.13;;;18.75;44.10
42125;BME280;27787;44.594;11.046;2023-03-25T10:35:52;100653.34;;;18.71;43.78
42125;BME280;27787;44.594;11.046;2023-03-25T10:38:38;100655.56;;;18.88;44.20
42125;BME280;27787;44.594;11.046;2023-03-25T10:41:29;100650.47;;;19.08;42.48
42125;BME280;27787;44.594;11.046;2023-03-25T10:44:14;100629.28;;;19.01;43.69
42125;BME280;27787;44.594;11.046;2023-03-25T10:49:43;100647.97;;;19.04;42.11
42125;BME280;27787;44.594;11.046;2023-03-25T10:52:30;100642.31;;;19.13;42.23
42125;BME280;27787;44.594;11.046;2023-03-25T10:55:27;100656.72;;;19.09;43.21
42125;BME280;27787;44.594;11.046;2023-03-25T10:58:15;100660.97;;;19.16;43.87
42125;BME280;27787;44.594;11.046;2023-03-25T11:01:10;100641.44;;;19.12;43.89
42125;BME280;27787;44.594;11.046;2023-03-25T11:03:56;100624.00;;;19.29;43.33
42125;BME280;27787;44.594;11.046;2023-03-25T11:06:51;100620.47;;;19.28;44.10
42125;BME280;27787;44.594;11.046;2023-03-25T11:09:38;100631.34;;;19.22;45.02
42125;BME280;27787;44.594;11.046;2023-03-25T11:12:23;100647.66;;;19.14;45.63
42125;BME280;27787;44.594;11.046;2023-03-25T11:15:12;100618.78;;;19.24;45.10
42125;BME280;27787;44.594;11.046;2023-03-25T11:21:13;100638.38;;;19.25;44.07
42125;BME280;27787;44.594;11.046;2023-03-25T11:23:59;100631.66;;;19.41;42.77
42125;BME280;27787;44.594;11.046;2023-03-25T11:26:45;100624.09;;;19.55;41.79
42125;BME280;27787;44.594;11.046;2023-03-25T11:29:32;100616.78;;;19.60;39.44
42125;BME280;27787;44.594;11.046;2023-03-25T11:32:32;100620.13;;;19.68;38.86
42125;BME280;27787;44.594;11.046;2023-03-25T11:35:21;100611.25;;;19.66;40.75
42125;BME280;27787;44.594;11.046;2023-03-25T11:38:15;100607.72;;;19.64;41.39
42125;BME280;27787;44.594;11.046;2023-03-25T11:41:01;100604.03;;;19.68;40.96
42125;BME280;27787;44.594;11.046;2023-03-25T11:43:47;100593.22;;;19.71;41.27
42125;BME280;27787;44.594;11.046;2023-03-25T11:46:40;100584.75;;;19.57;41.84
42125;BME280;27787;44.594;11.046;2023-03-25T11:49:27;100585.94;;;19.75;40.63
42125;BME280;27787;44.594;11.046;2023-03-25T11:55:48;100584.78;;;19.84;39.73
42125;BME280;27787;44.594;11.046;2023-03-25T11:58:39;100568.41;;;19.66;40.72
42125;BME280;27787;44.594;11.046;2023-03-25T12:01:44;100576.22;;;19.72;39.62
42125;BME280;27787;44.594;11.046;2023-03-25T12:04:59;100570.03;;;19.70;39.53
42125;BME280;27787;44.594;11.046;2023-03-25T12:08:14;100570.66;;;19.79;37.35
42125;BME280;27787;44.594;11.046;2023-03-25T12:11:07;100565.09;;;19.85;38.51
42125;BME280;27787;44.594;11.046;2023-03-25T12:26:02;100541.16;;;20.05;39.27
42125;BME280;27787;44.594;11.046;2023-03-25T12:32:13;100555.09;;;20.15;39.75
42125;BME280;27787;44.594;11.046;2023-03-25T12:47:05;100531.66;;;20.21;38.49
42125;BME280;27787;44.594;11.046;2023-03-25T12:50:25;100531.16;;;20.10;38.90
42125;BME280;27787;44.594;11.046;2023-03-25T13:02:35;100522.00;;;20.41;35.34
42125;BME280;27787;44.594;11.046;2023-03-25T13:05:29;100515.28;;;20.29;35.93
42125;BME280;27787;44.594;11.046;2023-03-25T13:11:09;100510.91;;;20.51;35.04
42125;BME280;27787;44.594;11.046;2023-03-25T13:13:58;100506.41;;;20.52;35.07
42125;BME280;27787;44.594;11.046;2023-03-25T13:16:44;100496.28;;;20.60;34.71
42125;BME280;27787;44.594;11.046;2023-03-25T13:19:35;100497.22;;;20.59;34.95
42125;BME280;27787;44.594;11.046;2023-03-25T13:22:32;100489.41;;;20.53;35.32
42125;BME280;27787;44.594;11.046;2023-03-25T13:25:31;100501.41;;;20.43;35.62
42125;BME280;27787;44.594;11.046;2023-03-25T13:28:26;100487.38;;;20.59;35.59
42125;BME280;27787;44.594;11.046;2023-03-25T13:31:15;100489.19;;;20.59;35.44
42125;BME280;27787;44.594;11.046;2023-03-25T13:37:09;100489.53;;;20.73;35.35
42125;BME280;27787;44.594;11.046;2023-03-25T13:46:03;100484.22;;;20.72;36.02
42125;BME280;27787;44.594;11.046;2023-03-25T13:49:02;100467.56;;;20.85;34.30
42125;BME280;27787;44.594;11.046;2023-03-25T13:51:49;100477.63;;;21.02;34.09
42125;BME280;27787;44.594;11.046;2023-03-25T13:54:44;100458.03;;;21.00;33.62
42125;BME280;27787;44.594;11.046;2023-03-25T14:00:46;100467.19;;;20.95;33.40
42125;BME280;27787;44.594;11.046;2023-03-25T14:06:53;100464.22;;;21.02;33.40
42125;BME280;27787;44.594;11.046;2023-03-25T14:10:22;100460.69;;;21.22;32.92
42125;BME280;27787;44.594;11.046;2023-03-25T14:13:34;100460.34;;;21.31;32.92
42125;BME280;27787;44.594;11.046;2023-03-25T14:16:27;100453.16;;;21.32;32.97
42125;BME280;27787;44.594;11.046;2023-03-25T14:19:19;100440.47;;;21.35;32.81
42125;BME280;27787;44.594;11.046;2023-03-25T14:22:16;100453.72;;;21.40;32.39
42125;BME280;27787;44.594;11.046;2023-03-25T14:25:01;100444.59;;;21.44;32.20
42125;BME280;27787;44.594;11.046;2023-03-25T14:27:49;100451.06;;;21.60;32.00
42125;BME280;27787;44.594;11.046;2023-03-25T14:30:34;100437.44;;;21.65;31.40
42125;BME280;27787;44.594;11.046;2023-03-25T14:33:18;100434.75;;;21.65;30.76
42125;BME280;27787;44.594;11.046;2023-03-25T14:36:06;100431.78;;;21.71;30.42
42125;BME280;27787;44.594;11.046;2023-03-25T14:38:52;100431.25;;;21.83;29.09
42125;BME280;27787;44.594;11.046;2023-03-25T14:42:41;100436.63;;;21.83;29.50
42125;BME280;27787;44.594;11.046;2023-03-25T14:45:33;100424.38;;;21.96;28.83
42125;BME280;27787;44.594;11.046;2023-03-25T14:48:24;100418.22;;;21.94;28.29
42125;BME280;27787;44.594;11.046;2023-03-25T14:57:08;100414.25;;;22.03;28.82
42125;BME280;27787;44.594;11.046;2023-03-25T15:00:00;100418.47;;;22.08;28.37
42125;BME280;27787;44.594;11.046;2023-03-25T15:02:53;100424.69;;;22.29;27.67
42125;BME280;27787;44.594;11.046;2023-03-25T15:05:41;100411.09;;;22.32;27.47
42125;BME280;27787;44.594;11.046;2023-03-25T15:08:39;100411.91;;;22.34;26.61
42125;BME280;27787;44.594;11.046;2023-03-25T15:11:35;100402.69;;;22.40;26.73
42125;BME280;27787;44.594;11.046;2023-03-25T15:14:24;100408.47;;;22.50;26.50
42125;BME280;27787;44.594;11.046;2023-03-25T15:17:11;100416.63;;;22.48;27.16
42125;BME280;27787;44.594;11.046;2023-03-25T15:23:20;100418.00;;;22.38;25.95
42125;BME280;27787;44.594;11.046;2023-03-25T15:26:13;100406.38;;;22.37;26.24
42125;BME280;27787;44.594;11.046;2023-03-25T15:56:29;100411.94;;;22.53;24.98
42125;BME280;27787;44.594;11.046;2023-03-25T15:59:28;100413.50;;;22.57;25.08
42125;BME280;27787;44.594;11.046;2023-03-25T16:02:22;100412.34;;;22.63;25.11
42125;BME280;27787;44.594;11.046;2023-03-25T16:05:11;100416.50;;;22.70;24.65
42125;BME280;27787;44.594;11.046;2023-03-25T16:07:58;100414.81;;;22.67;24.50
42125;BME280;27787;44.594;11.046;2023-03-25T16:10:48;100410.03;;;22.55;24.74
42125;BME280;27787;44.594;11.046;2023-03-25T16:13:34;100411.78;;;22.56;24.70
42125;BME280;27787;44.594;11.046;2023-03-25T16:16:18;100409.00;;;22.58;24.35
42125;BME280;27787;44.594;11.046;2023-03-25T16:19:04;100407.19;;;22.58;23.98
42125;BME280;27787;44.594;11.046;2023-03-25T16:21:52;100404.66;;;22.55;24.47
42125;BME280;27787;44.594;11.046;2023-03-25T16:24:38;100399.38;;;22.52;25.32
42125;BME280;27787;44.594;11.046;2023-03-25T16:27:25;100413.00;;;22.49;25.03
42125;BME280;27787;44.594;11.046;2023-03-25T16:30:24;100403.97;;;22.31;25.70
42125;BME280;27787;44.594;11.046;2023-03-25T16:35:59;100401.00;;;22.19;26.58
42125;BME280;27787;44.594;11.046;2023-03-25T16:38:44;100401.00;;;22.19;26.89
42125;BME280;27787;44.594;11.046;2023-03-25T16:41:29;100396.56;;;22.18;26.79
42125;BME280;27787;44.594;11.046;2023-03-25T16:44:20;100400.34;;;22.14;26.83
42125;BME280;27787;44.594;11.046;2023-03-25T16:47:05;100395.16;;;22.09;27.14
42125;BME280;27787;44.594;11.046;2023-03-25T16:49:52;100404.03;;;22.11;26.81
42125;BME280;27787;44.594;11.046;2023-03-25T16:52:38;100404.34;;;22.03;26.56
42125;BME280;27787;44.594;11.046;2023-03-25T16:55:29;100406.50;;;21.95;26.82
42125;BME280;27787;44.594;11.046;2023-03-25T16:58:22;100406.03;;;21.86;26.89
42125;BME280;27787;44.594;11.046;2023-03-25T17:01:09;100409.25;;;21.75;27.22
42125;BME280;27787;44.594;11.046;2023-03-25T17:04:13;100420.56;;;21.61;27.34
42125;BME280;27787;44.594;11.046;2023-03-25T17:07:00;100417.59;;;21.47;27.35